Time;durP1;ratioP1;P1;durP2;ratioP2;P2;SDS_P1;SDS_P2;PMS_P1;PMS_P2;Temp;Humidity;BMP_temperature;BMP_pressure;BME280_temperature;BME280_humidity;BME280_pressure;Samples;Min_cycle;Max_cycle;Signal;HPM_P1;HPM_P2
2022/01/02 00:01:20;;;;;;;1.73;1.05;;;4.50;86.40;;;;;;5056511;28;20040;-37
2022/01/02 00:03:51;;;;;;;1.88;1.10;;;4.40;85.90;;;;;;5056412;28;20033;-37
2022/01/02 00:06:26;;;;;;;1.40;1.00;;;4.40;85.70;;;;;;5055106;28;20449;-37
2022/01/02 00:09:03;;;;;;;2.50;1.65;;;4.40;85.20;;;;;;5056559;28;20048;-37
2022/01/02 00:11:29;;;;;;;1.45;1.10;;;4.40;84.60;;;;;;5056068;28;20033;-39
2022/01/02 00:14:01;;;;;;;0.95;0.85;;;4.30;84.20;;;;;;5056038;28;20171;-36
2022/01/02 00:16:28;;;;;;;2.28;1.20;;;4.30;84.20;;;;;;5056084;28;20033;-36
2022/01/02 00:19:06;;;;;;;0.80;0.80;;;4.20;84.30;;;;;;5056467;28;20110;-37
2022/01/02 00:21:33;;;;;;;1.63;1.00;;;4.20;84.50;;;;;;5056305;28;20040;-39
2022/01/02 00:24:06;;;;;;;1.80;1.15;;;4.10;84.50;;;;;;5056125;28;20038;-39
2022/01/02 00:26:37;;;;;;;0.95;0.80;;;4.10;84.90;;;;;;5056225;28;20040;-37
2022/01/02 00:29:05;;;;;;;1.20;1.00;;;4.00;84.90;;;;;;5056295;28;20041;-38
2022/01/02 00:31:32;;;;;;;1.13;1.00;;;4.00;85.00;;;;;;5056135;28;20437;-36
2022/01/02 00:33:59;;;;;;;2.83;0.80;;;4.00;84.90;;;;;;5056038;28;20056;-39
2022/01/02 00:36:25;;;;;;;0.75;0.75;;;3.90;84.70;;;;;;5056101;28;20035;-39
2022/01/02 00:38:51;;;;;;;0.77;0.77;;;3.90;84.90;;;;;;5056001;28;20103;-40
2022/01/02 00:41:27;;;;;;;1.13;1.02;;;3.90;85.00;;;;;;5055706;28;20298;-40
2022/01/02 00:44:22;;;;;;;1.02;0.93;;;3.90;85.10;;;;;;5055594;28;20073;-40
2022/01/02 00:46:57;;;;;;;0.93;0.93;;;3.90;85.10;;;;;;5056067;28;20325;-39
2022/01/02 00:49:26;;;;;;;1.75;1.00;;;3.80;84.80;;;;;;5056175;28;20036;-39
2022/01/02 00:52:02;;;;;;;0.70;0.70;;;3.80;84.00;;;;;;5055877;28;20029;-38
2022/01/02 00:54:30;;;;;;;1.67;1.17;;;3.80;83.90;;;;;;5056872;28;20029;-37
2022/01/02 00:57:03;;;;;;;0.80;0.80;;;3.70;83.10;;;;;;5059539;28;20136;-39
2022/01/02 00:59:34;;;;;;;0.80;0.80;;;3.70;82.70;;;;;;5059859;28;20409;-36
2022/01/02 01:02:03;;;;;;;1.05;0.88;;;3.60;81.90;;;;;;5059529;28;20075;-38
2022/01/02 01:04:32;;;;;;;1.02;0.95;;;3.60;81.60;;;;;;5059791;28;20417;-37
2022/01/02 01:07:04;;;;;;;0.70;0.60;;;3.60;81.40;;;;;;5059636;28;20036;-39
2022/01/02 01:09:31;;;;;;;2.63;0.68;;;3.60;80.60;;;;;;5059846;28;20033;-37
2022/01/02 01:12:01;;;;;;;0.70;0.70;;;3.60;80.50;;;;;;5059347;28;20029;-39
2022/01/02 01:14:28;;;;;;;1.30;0.73;;;3.60;80.20;;;;;;5059661;28;20029;-38
2022/01/02 01:16:54;;;;;;;1.88;0.95;;;3.60;79.80;;;;;;5059535;28;20128;-38
2022/01/02 01:19:22;;;;;;;1.02;0.68;;;3.50;79.20;;;;;;5059376;28;20029;-39
2022/01/02 01:21:48;;;;;;;0.50;0.50;;;3.50;79.30;;;;;;5059255;28;20364;-38
2022/01/02 01:24:14;;;;;;;0.80;0.47;;;3.50;79.00;;;;;;5059182;28;20045;-37
2022/01/02 01:26:40;;;;;;;0.82;0.70;;;3.50;78.60;;;;;;5059108;28;20033;-39
2022/01/02 01:29:06;;;;;;;0.70;0.70;;;3.50;78.10;;;;;;5059567;28;20072;-38
2022/01/02 01:31:32;;;;;;;16.35;1.08;;;3.50;77.80;;;;;;5059087;28;20421;-37
2022/01/02 01:33:57;;;;;;;0.75;0.70;;;3.50;77.50;;;;;;5059047;28;20061;-39
2022/01/02 01:36:23;;;;;;;1.05;0.90;;;3.50;77.20;;;;;;5059319;28;20100;-39
2022/01/02 01:38:48;;;;;;;0.88;0.70;;;3.40;76.70;;;;;;5059066;28;20051;-36
2022/01/02 01:41:40;;;;;;;0.90;0.70;;;3.40;76.50;;;;;;5058886;28;20082;-38
2022/01/02 01:44:40;;;;;;;3.90;0.70;;;3.40;76.10;;;;;;5058875;28;20128;-36
2022/01/02 01:46:55;;;;;;;1.02;0.80;;;3.40;76.20;;;;;;5058667;28;20080;-37
2022/01/02 01:49:27;;;;;;;0.68;0.68;;;3.30;75.80;;;;;;5059064;28;20029;-37
2022/01/02 01:51:54;;;;;;;0.60;0.55;;;3.30;74.90;;;;;;5058792;28;20032;-37
2022/01/02 01:54:21;;;;;;;0.57;0.57;;;3.30;74.90;;;;;;5058857;28;20051;-37
2022/01/02 01:56:47;;;;;;;1.05;0.73;;;3.30;74.70;;;;;;5058562;28;20068;-39
2022/01/02 01:59:15;;;;;;;2.15;0.95;;;3.30;73.90;;;;;;5058804;28;20037;-39
2022/01/02 02:01:41;;;;;;;1.02;0.80;;;3.20;73.90;;;;;;5058780;28;20028;-37
2022/01/02 02:04:07;;;;;;;0.85;0.70;;;3.20;73.30;;;;;;5058927;28;20439;-37
2022/01/02 02:06:35;;;;;;;0.70;0.70;;;3.20;73.00;;;;;;5058364;28;20118;-38
2022/01/02 02:09:02;;;;;;;2.60;0.82;;;3.20;72.90;;;;;;5058780;28;20125;-38
2022/01/02 02:11:29;;;;;;;2.03;0.65;;;3.20;72.40;;;;;;5058607;28;20298;-39
2022/01/02 02:13:55;;;;;;;1.60;0.60;;;3.20;72.50;;;;;;5058402;28;20044;-38
2022/01/02 02:16:22;;;;;;;2.13;1.10;;;3.20;72.60;;;;;;5058150;28;20025;-39
2022/01/02 02:18:48;;;;;;;1.58;0.80;;;3.20;72.60;;;;;;5058295;28;20404;-37
2022/01/02 02:21:14;;;;;;;1.15;0.73;;;3.20;72.40;;;;;;5058318;28;20033;-37
2022/01/02 02:23:42;;;;;;;1.13;0.77;;;3.20;72.10;;;;;;5057890;28;20033;-36
2022/01/02 02:26:08;;;;;;;2.60;1.10;;;3.20;72.00;;;;;;5058262;28;20091;-40
2022/01/02 02:28:34;;;;;;;2.30;1.20;;;3.20;72.30;;;;;;5058282;28;20033;-39
2022/01/02 02:31:00;;;;;;;1.45;0.98;;;3.20;72.30;;;;;;5058094;28;20108;-39
2022/01/02 02:33:25;;;;;;;1.98;1.00;;;3.20;72.50;;;;;;5058256;28;20313;-37
2022/01/02 02:35:52;;;;;;;0.80;0.80;;;3.10;72.30;;;;;;5057801;28;20029;-37
2022/01/02 02:38:19;;;;;;;0.95;0.80;;;3.10;71.80;;;;;;5057852;28;20029;-36
2022/01/02 02:40:46;;;;;;;1.48;0.90;;;3.10;71.70;;;;;;5057828;28;20024;-38
2022/01/02 02:51:38;;;;;;;0.88;0.85;;;3.00;70.30;;;;;;5057808;28;20108;-37
2022/01/02 02:54:05;;;;;;;1.05;0.93;;;3.00;69.40;;;;;;5057818;28;20041;-39
2022/01/02 02:56:53;;;;;;;1.00;0.88;;;3.00;68.60;;;;;;5056311;28;20079;-37
2022/01/02 02:59:18;;;;;;;1.25;1.08;;;2.90;68.40;;;;;;5057557;28;20029;-37
2022/01/02 03:01:44;;;;;;;0.73;0.73;;;2.90;68.00;;;;;;5057575;28;20021;-37
2022/01/02 03:04:10;;;;;;;1.10;0.90;;;2.90;67.40;;;;;;5057401;28;20120;-40
2022/01/02 03:06:35;;;;;;;1.60;0.80;;;2.80;67.60;;;;;;5057305;28;20067;-37
2022/01/02 03:09:08;;;;;;;0.60;0.60;;;2.80;67.10;;;;;;5057385;28;20057;-39
2022/01/02 03:11:35;;;;;;;1.45;1.00;;;2.80;66.90;;;;;;5057191;28;20064;-40
2022/01/02 03:14:00;;;;;;;0.80;0.75;;;2.70;67.40;;;;;;5057601;28;20359;-39
2022/01/02 03:16:26;;;;;;;0.70;0.70;;;2.70;67.90;;;;;;5056825;28;20108;-36
2022/01/02 03:18:51;;;;;;;0.77;0.75;;;2.70;68.30;;;;;;5056881;28;20350;-40
2022/01/02 03:21:17;;;;;;;1.20;0.80;;;2.70;68.30;;;;;;5057318;28;20021;-39
2022/01/02 03:23:43;;;;;;;1.30;0.80;;;2.70;68.50;;;;;;5057199;28;20048;-36
2022/01/02 03:26:09;;;;;;;1.40;0.93;;;2.70;68.70;;;;;;5057087;28;20475;-37
2022/01/02 03:28:35;;;;;;;0.95;0.90;;;2.70;69.20;;;;;;5057042;28;20249;-37
2022/01/02 03:31:01;;;;;;;1.35;0.82;;;2.70;69.40;;;;;;5056708;28;20404;-39
2022/01/02 03:33:27;;;;;;;1.63;0.85;;;2.70;69.60;;;;;;5056867;28;20136;-37
2022/01/02 03:35:52;;;;;;;0.85;0.80;;;2.80;69.80;;;;;;5056986;28;20056;-38
2022/01/02 03:38:18;;;;;;;1.70;1.10;;;2.80;69.80;;;;;;5056934;28;20052;-37
2022/01/02 03:40:44;;;;;;;1.58;1.13;;;2.80;69.90;;;;;;5056619;28;20096;-37
2022/01/02 03:43:10;;;;;;;1.25;1.10;;;2.80;70.00;;;;;;5056781;28;20324;-37
2022/01/02 03:45:36;;;;;;;0.90;0.90;;;2.80;70.10;;;;;;5056670;28;20017;-38
2022/01/02 03:48:01;;;;;;;3.20;1.30;;;2.80;70.30;;;;;;5056468;28;20044;-40
2022/01/02 03:50:27;;;;;;;1.02;0.90;;;2.80;70.30;;;;;;5056654;28;20467;-36
2022/01/02 03:52:54;;;;;;;4.65;0.70;;;2.80;70.40;;;;;;5056574;28;20013;-37
2022/01/02 03:55:19;;;;;;;1.15;0.82;;;2.80;70.40;;;;;;5056186;28;20045;-40
2022/01/02 03:57:45;;;;;;;0.82;0.82;;;2.70;70.60;;;;;;5056056;28;20090;-38
2022/01/02 04:00:13;;;;;;;1.30;1.20;;;2.70;70.80;;;;;;5056788;28;20029;-37
2022/01/02 04:02:39;;;;;;;1.30;1.00;;;2.70;71.20;;;;;;5056650;28;20048;-36
2022/01/02 04:05:10;;;;;;;1.35;1.08;;;2.70;71.50;;;;;;5056624;28;20064;-37
2022/01/02 04:07:35;;;;;;;;;;;2.70;71.80;;;;;;5056999;28;20025;-37
2022/01/02 04:10:06;;;;;;;2.33;1.40;;;2.60;71.80;;;;;;5056522;28;20354;-37
2022/01/02 04:12:35;;;;;;;1.20;1.10;;;2.60;71.90;;;;;;5056526;28;20332;-39
2022/01/02 04:15:03;;;;;;;2.72;1.50;;;2.60;72.00;;;;;;5056365;28;20048;-37
2022/01/02 04:17:29;;;;;;;2.38;1.67;;;2.60;72.10;;;;;;5056122;28;20022;-36
2022/01/02 04:19:55;;;;;;;3.95;2.58;;;2.60;72.00;;;;;;5056451;28;20029;-37
2022/01/02 04:22:20;;;;;;;2.38;1.52;;;2.60;71.90;;;;;;5056084;28;20027;-39
2022/01/02 04:24:46;;;;;;;1.80;1.10;;;2.60;71.60;;;;;;5056382;28;20040;-37
2022/01/02 04:27:12;;;;;;;2.80;1.55;;;2.60;71.20;;;;;;5055834;28;20079;-38
2022/01/02 04:29:37;;;;;;;2.03;1.50;;;2.60;71.00;;;;;;5056155;28;20083;-39
2022/01/02 04:32:03;;;;;;;2.53;1.80;;;2.60;71.10;;;;;;5055900;28;20036;-39
2022/01/02 04:34:29;;;;;;;2.08;1.40;;;2.60;71.00;;;;;;5056133;28;20043;-37
2022/01/02 04:36:54;;;;;;;1.63;1.25;;;2.60;70.90;;;;;;5055767;28;20033;-37
2022/01/02 04:39:20;;;;;;;2.85;2.03;;;2.60;70.70;;;;;;5056076;28;20033;-37
2022/01/02 04:41:45;;;;;;;2.20;1.50;;;2.50;70.70;;;;;;5055760;28;20036;-38
2022/01/02 04:44:11;;;;;;;2.15;1.48;;;2.50;70.80;;;;;;5056178;28;20037;-40
2022/01/02 04:46:37;;;;;;;1.92;1.60;;;2.50;71.00;;;;;;5055974;28;20041;-37
2022/01/02 04:49:02;;;;;;;1.98;1.50;;;2.40;70.90;;;;;;5056002;28;20048;-37
2022/01/02 04:51:28;;;;;;;1.73;1.33;;;2.50;71.10;;;;;;5056046;28;20033;-36
2022/01/02 04:53:54;;;;;;;3.78;2.00;;;2.50;71.10;;;;;;5055835;28;20356;-37
2022/01/02 04:56:19;;;;;;;2.42;1.23;;;2.50;71.20;;;;;;5055453;28;20122;-36
2022/01/02 04:58:45;;;;;;;3.90;1.80;;;2.50;71.10;;;;;;5055782;28;20398;-36
2022/01/02 05:01:12;;;;;;;2.50;1.63;;;2.50;70.90;;;;;;5055574;28;20111;-38
2022/01/02 05:03:43;;;;;;;3.58;2.15;;;2.40;70.70;;;;;;5055904;28;20037;-39
2022/01/02 05:06:10;;;;;;;3.42;1.80;;;2.40;70.40;;;;;;5055609;28;20082;-37
2022/01/02 05:08:36;;;;;;;1.20;1.10;;;2.40;70.30;;;;;;5055868;28;20059;-39
2022/01/02 05:11:02;;;;;;;2.90;1.40;;;2.30;69.70;;;;;;5055694;28;20485;-39
2022/01/02 05:13:28;;;;;;;1.80;1.13;;;2.30;69.90;;;;;;5055539;28;20401;-38
2022/01/02 05:15:54;;;;;;;2.10;1.45;;;2.30;69.80;;;;;;5055396;28;20052;-36
2022/01/02 05:18:20;;;;;;;2.65;1.50;;;2.30;69.70;;;;;;5055713;28;20120;-38
2022/01/02 05:20:46;;;;;;;2.13;1.33;;;2.30;69.40;;;;;;5055401;28;20064;-37
2022/01/02 05:23:16;;;;;;;2.45;1.60;;;2.20;69.40;;;;;;5055429;28;20037;-37
2022/01/02 05:25:43;;;;;;;2.90;1.92;;;2.20;69.50;;;;;;5055375;28;20082;-39
2022/01/02 05:28:11;;;;;;;1.83;1.27;;;2.20;69.80;;;;;;5055538;28;20025;-37
2022/01/02 05:30:38;;;;;;;2.75;1.52;;;2.20;69.50;;;;;;5055382;28;20029;-39
2022/01/02 05:33:04;;;;;;;1.65;1.38;;;2.20;69.50;;;;;;5055374;28;20298;-37
2022/01/02 05:35:31;;;;;;;2.25;1.10;;;2.20;69.30;;;;;;5055581;28;20295;-37
2022/01/02 05:37:57;;;;;;;2.15;1.40;;;2.10;69.00;;;;;;5055384;28;20527;-39
2022/01/02 05:40:25;;;;;;;3.28;1.60;;;2.10;69.00;;;;;;5056400;28;20325;-36
2022/01/02 05:42:50;;;;;;;3.10;1.60;;;2.10;69.00;;;;;;5058827;28;20104;-37
2022/01/02 05:45:16;;;;;;;2.65;1.70;;;2.10;69.00;;;;;;5059106;28;20209;-37
2022/01/02 05:47:42;;;;;;;3.92;1.73;;;2.00;68.60;;;;;;5058809;28;20090;-39
2022/01/02 05:50:08;;;;;;;2.30;1.63;;;2.10;68.60;;;;;;5059145;28;20041;-36
2022/01/02 05:52:34;;;;;;;2.58;1.35;;;2.00;68.70;;;;;;5058945;28;20298;-40
2022/01/02 05:54:59;;;;;;;3.17;1.65;;;2.10;68.90;;;;;;5058618;28;20064;-38
2022/01/02 05:57:25;;;;;;;1.63;1.17;;;2.00;68.30;;;;;;5058528;28;20029;-39
2022/01/02 05:59:51;;;;;;;1.35;1.20;;;2.00;68.30;;;;;;5058960;28;20043;-36
2022/01/02 06:02:16;;;;;;;2.92;1.27;;;2.00;68.60;;;;;;5058428;28;20041;-39
2022/01/02 06:04:42;;;;;;;2.75;1.70;;;2.00;69.20;;;;;;5058890;28;20068;-37
2022/01/02 06:07:09;;;;;;;3.22;1.40;;;2.00;68.10;;;;;;5058371;28;20045;-39
2022/01/02 06:09:35;;;;;;;1.48;1.38;;;2.00;68.40;;;;;;5058651;28;20318;-40
2022/01/02 06:12:00;;;;;;;3.22;2.10;;;2.00;67.50;;;;;;5058210;28;20444;-37
2022/01/02 06:14:26;;;;;;;2.30;1.52;;;2.00;66.90;;;;;;5058560;28;20049;-38
2022/01/02 06:16:52;;;;;;;2.72;1.67;;;1.90;66.60;;;;;;5058440;28;20423;-39
2022/01/02 06:19:18;;;;;;;2.45;1.40;;;1.90;66.40;;;;;;5058441;28;20076;-38
2022/01/02 06:21:43;;;;;;;2.05;1.40;;;1.90;65.70;;;;;;5058411;28;20029;-37
2022/01/02 06:24:09;;;;;;;1.52;1.27;;;1.80;66.00;;;;;;5058286;28;20044;-36
2022/01/02 06:26:35;;;;;;;2.47;1.55;;;1.80;65.70;;;;;;5058085;28;20029;-38
2022/01/02 06:29:03;;;;;;;2.00;1.30;;;1.80;65.70;;;;;;5058011;28;20041;-39
2022/01/02 06:31:29;;;;;;;2.80;1.42;;;1.70;65.40;;;;;;5057687;28;20111;-37
2022/01/02 06:33:55;;;;;;;3.30;1.50;;;1.70;65.30;;;;;;5057931;28;20095;-36
2022/01/02 06:36:21;;;;;;;1.90;1.48;;;1.60;65.40;;;;;;5057816;28;20028;-40
2022/01/02 06:38:47;;;;;;;3.85;1.55;;;1.60;65.10;;;;;;5057888;28;20123;-37
2022/01/02 06:41:12;;;;;;;3.25;1.70;;;1.50;65.00;;;;;;5057728;28;20410;-36
2022/01/02 06:43:39;;;;;;;8.45;1.83;;;1.50;65.20;;;;;;5057771;28;20059;-39
2022/01/02 06:46:05;;;;;;;3.67;1.70;;;1.40;65.30;;;;;;5057658;28;20036;-36
2022/01/02 06:48:31;;;;;;;3.63;1.67;;;1.40;65.30;;;;;;5057818;28;20059;-39
2022/01/02 06:50:57;;;;;;;4.10;1.70;;;1.30;65.30;;;;;;5057725;28;20032;-37
2022/01/02 06:53:22;;;;;;;4.28;2.13;;;1.30;65.70;;;;;;5056695;28;20298;-36
2022/01/02 06:55:48;;;;;;;1.75;1.50;;;1.30;65.80;;;;;;5057243;28;20374;-39
2022/01/02 06:58:14;;;;;;;1.65;1.48;;;1.30;65.90;;;;;;5057494;28;20120;-36
2022/01/02 07:00:41;;;;;;;1.85;1.42;;;1.30;65.60;;;;;;5057545;28;20025;-39
2022/01/02 07:03:06;;;;;;;2.10;1.40;;;1.20;65.40;;;;;;5057335;28;20392;-36
2022/01/02 07:05:32;;;;;;;1.95;1.40;;;1.30;65.40;;;;;;5057519;28;20061;-36
2022/01/02 07:07:58;;;;;;;4.78;1.80;;;1.20;65.20;;;;;;5057368;28;20021;-40
2022/01/02 07:10:24;;;;;;;1.90;1.60;;;1.20;65.20;;;;;;5057384;28;20036;-36
2022/01/02 07:12:49;;;;;;;1.90;1.42;;;1.10;65.10;;;;;;5056917;28;20187;-37
2022/01/02 07:15:15;;;;;;;3.58;1.73;;;1.10;64.50;;;;;;5057114;28;20306;-36
2022/01/02 07:17:41;;;;;;;2.05;1.67;;;1.10;64.90;;;;;;5057225;28;20025;-39
2022/01/02 07:20:08;;;;;;;1.55;1.33;;;1.10;64.50;;;;;;5057309;28;20040;-39
2022/01/02 07:22:34;;;;;;;2.67;1.70;;;1.00;65.20;;;;;;5057111;28;20321;-37
2022/01/02 07:25:01;;;;;;;1.75;1.40;;;1.00;64.60;;;;;;5057280;28;20037;-36
2022/01/02 07:27:26;;;;;;;7.85;3.08;;;1.00;64.20;;;;;;5057057;28;20043;-37
2022/01/02 07:29:54;;;;;;;1.83;1.50;;;1.00;64.40;;;;;;5057091;28;20045;-38
2022/01/02 07:32:20;;;;;;;2.92;1.70;;;1.00;64.40;;;;;;5056735;28;20483;-36
2022/01/02 07:34:46;;;;;;;2.63;1.63;;;1.00;64.80;;;;;;5057010;28;20041;-37
2022/01/02 07:37:12;;;;;;;1.65;1.42;;;1.00;65.00;;;;;;5056580;28;20028;-37
2022/01/02 07:39:37;;;;;;;2.92;1.88;;;1.00;64.90;;;;;;5056864;28;20025;-37
2022/01/02 07:42:04;;;;;;;4.78;2.28;;;1.00;64.90;;;;;;5056461;28;20059;-40
2022/01/02 07:44:29;;;;;;;5.05;2.10;;;1.00;64.60;;;;;;5056820;28;20037;-38
2022/01/02 07:46:55;;;;;;;2.13;1.90;;;1.10;64.70;;;;;;5056544;28;20083;-39
2022/01/02 07:49:21;;;;;;;2.65;1.77;;;1.10;64.70;;;;;;5056651;28;20068;-36
2022/01/02 07:51:47;;;;;;;4.97;1.90;;;1.10;64.70;;;;;;5056592;28;20032;-39
2022/01/02 07:54:13;;;;;;;2.65;1.83;;;1.10;64.50;;;;;;5056508;28;20033;-36
2022/01/02 07:56:39;;;;;;;3.78;1.88;;;1.10;64.50;;;;;;5056073;28;20080;-37
2022/01/02 07:59:05;;;;;;;2.63;1.85;;;1.10;64.50;;;;;;5056266;28;20040;-37
2022/01/02 08:01:31;;;;;;;6.18;3.17;;;1.10;64.30;;;;;;5056229;28;20021;-36
2022/01/02 08:03:57;;;;;;;6.65;4.28;;;1.10;64.30;;;;;;5055772;28;20037;-36
2022/01/02 08:06:23;;;;;;;8.80;5.40;;;1.20;64.80;;;;;;5056132;28;20029;-37
2022/01/02 08:08:48;;;;;;;10.35;5.80;;;1.20;64.90;;;;;;5056152;28;20033;-36
2022/01/02 08:11:16;;;;;;;9.70;5.05;;;1.20;65.20;;;;;;5055804;28;20032;-39
2022/01/02 08:13:43;;;;;;;5.93;3.28;;;1.30;65.10;;;;;;5056260;28;20069;-38
2022/01/02 08:16:08;;;;;;;11.10;4.65;;;1.30;65.00;;;;;;5054867;28;20032;-38
2022/01/02 08:18:34;;;;;;;10.50;5.10;;;1.30;64.80;;;;;;5056188;28;20062;-36
2022/01/02 08:21:00;;;;;;;4.65;2.60;;;1.30;64.50;;;;;;5055940;28;20033;-39
2022/01/02 08:23:26;;;;;;;10.77;5.20;;;1.30;64.40;;;;;;5055868;28;20043;-36
2022/01/02 08:25:51;;;;;;;5.95;2.92;;;1.30;64.40;;;;;;5056068;28;20028;-37
2022/01/02 08:28:17;;;;;;;5.78;2.78;;;1.30;64.20;;;;;;5055726;28;20029;-36
2022/01/02 08:30:43;;;;;;;3.05;2.08;;;1.30;63.50;;;;;;5055899;28;20022;-36
2022/01/02 08:33:12;;;;;;;6.07;3.55;;;1.30;63.20;;;;;;5055708;28;20394;-38
2022/01/02 08:35:38;;;;;;;9.18;4.30;;;1.20;63.30;;;;;;5055507;28;20036;-39
2022/01/02 08:38:04;;;;;;;4.07;2.42;;;1.20;63.30;;;;;;5055576;28;20294;-37
2022/01/02 08:40:30;;;;;;;2.92;2.13;;;1.20;63.30;;;;;;5055845;28;20029;-39
2022/01/02 08:42:56;;;;;;;4.57;2.80;;;1.20;62.20;;;;;;5055412;28;20025;-36
2022/01/02 08:45:23;;;;;;;2.60;2.05;;;1.20;62.60;;;;;;5055545;28;20052;-39
2022/01/02 08:47:49;;;;;;;3.03;2.08;;;1.20;62.70;;;;;;5055626;28;20159;-39
2022/01/02 08:50:15;;;;;;;2.63;1.67;;;1.20;62.90;;;;;;5055572;28;20037;-39
2022/01/02 08:52:40;;;;;;;4.50;2.40;;;1.20;62.60;;;;;;5055482;28;20409;-37
2022/01/02 08:55:07;;;;;;;5.00;2.20;;;1.20;62.60;;;;;;5055508;28;20056;-39
2022/01/02 08:57:32;;;;;;;3.33;2.10;;;1.20;62.60;;;;;;5055651;28;20420;-37
2022/01/02 08:59:58;;;;;;;11.90;5.80;;;1.20;62.60;;;;;;5055737;28;20108;-36
2022/01/02 09:02:24;;;;;;;15.55;5.15;;;1.20;62.50;;;;;;5055623;28;20029;-39
2022/01/02 09:04:50;;;;;;;6.85;3.25;;;1.10;62.60;;;;;;5055865;28;20405;-36
2022/01/02 09:07:16;;;;;;;5.20;2.70;;;1.10;62.60;;;;;;5055275;28;20087;-37
2022/01/02 09:09:41;;;;;;;35.58;8.65;;;1.10;62.60;;;;;;5055728;28;20106;-39
2022/01/02 09:12:08;;;;;;;5.47;2.97;;;1.10;62.80;;;;;;5055516;28;20035;-39
2022/01/02 09:14:33;;;;;;;40.70;8.77;;;1.20;62.90;;;;;;5055565;28;20033;-40
2022/01/02 09:16:59;;;;;;;21.20;6.10;;;1.20;63.00;;;;;;5058643;28;20078;-39
2022/01/02 09:19:25;;;;;;;23.17;6.03;;;1.20;63.30;;;;;;5059509;28;20064;-37
2022/01/02 09:21:50;;;;;;;29.33;9.25;;;1.20;63.30;;;;;;5059400;28;20028;-36
2022/01/02 09:24:19;;;;;;;20.73;5.85;;;1.20;63.00;;;;;;5059285;28;20037;-36
2022/01/02 09:26:45;;;;;;;10.80;4.47;;;1.20;62.80;;;;;;5058883;28;20036;-36
2022/01/02 09:29:10;;;;;;;9.23;4.22;;;1.10;62.40;;;;;;5059257;28;20037;-39
2022/01/02 09:31:36;;;;;;;10.18;4.60;;;1.10;61.90;;;;;;5058763;28;20298;-37
2022/01/02 09:34:02;;;;;;;3.30;2.33;;;1.10;61.50;;;;;;5059044;28;20061;-36
2022/01/02 09:36:28;;;;;;;3.95;1.90;;;1.00;61.20;;;;;;5059065;28;20405;-36
2022/01/02 09:38:54;;;;;;;3.15;2.03;;;1.00;60.70;;;;;;5059199;28;20057;-36
2022/01/02 09:41:20;;;;;;;5.60;2.85;;;1.00;60.80;;;;;;5058572;28;20017;-39
2022/01/02 09:43:47;;;;;;;4.82;2.40;;;1.00;60.60;;;;;;5059097;28;20040;-36
2022/01/02 09:46:27;;;;;;;3.97;2.20;;;1.00;60.90;;;;;;5059154;28;20114;-36
2022/01/02 09:48:54;;;;;;;9.57;3.80;;;1.00;61.00;;;;;;5058875;28;20033;-38
2022/01/02 09:51:26;;;;;;;5.88;2.53;;;1.00;60.90;;;;;;5058824;28;20029;-36
2022/01/02 09:53:54;;;;;;;7.60;3.58;;;1.00;60.90;;;;;;5058721;28;20330;-39
2022/01/02 09:56:20;;;;;;;4.10;2.30;;;1.00;61.00;;;;;;5058165;28;20086;-39
2022/01/02 09:58:46;;;;;;;10.05;3.55;;;1.10;61.30;;;;;;5058891;28;20448;-37
2022/01/02 10:01:21;;;;;;;11.35;3.53;;;1.10;61.40;;;;;;5058228;28;20104;-37
2022/01/02 10:03:50;;;;;;;3.35;2.20;;;1.10;61.70;;;;;;5058347;28;20044;-39
2022/01/02 10:06:17;;;;;;;3.83;2.42;;;1.20;61.70;;;;;;5058249;28;20028;-36
2022/01/02 10:08:44;;;;;;;13.20;3.60;;;1.20;61.40;;;;;;5058196;28;20037;-36
2022/01/02 10:11:29;;;;;;;7.65;3.17;;;1.30;61.50;;;;;;5057990;28;20461;-36
2022/01/02 10:14:04;;;;;;;11.48;3.90;;;1.30;61.40;;;;;;5058196;28;20037;-39
2022/01/02 10:16:38;;;;;;;2.58;2.15;;;1.20;60.90;;;;;;5057707;28;20060;-36
2022/01/02 10:19:26;;;;;;;7.45;3.20;;;1.20;61.00;;;;;;5058042;28;20424;-39
2022/01/02 10:21:55;;;;;;;6.70;3.25;;;1.20;61.10;;;;;;5057850;28;20166;-36
2022/01/02 10:24:30;;;;;;;5.95;2.97;;;1.10;61.00;;;;;;5058032;28;20040;-36
2022/01/02 10:27:04;;;;;;;8.13;3.47;;;1.10;61.10;;;;;;5057800;28;20029;-39
2022/01/02 10:29:54;;;;;;;13.55;5.40;;;1.10;61.10;;;;;;5058138;28;20033;-39
2022/01/02 10:32:32;;;;;;;4.32;2.70;;;1.10;61.30;;;;;;5057693;28;20028;-39
2022/01/02 10:35:17;;;;;;;9.18;4.10;;;1.20;61.70;;;;;;5057897;28;20029;-37
2022/01/02 10:37:48;;;;;;;8.00;3.28;;;1.20;61.60;;;;;;5057980;28;20025;-39
2022/01/02 10:40:26;;;;;;;6.40;2.60;;;1.30;61.80;;;;;;5057861;28;20052;-39
2022/01/02 10:42:51;;;;;;;9.98;3.55;;;1.30;61.60;;;;;;5057574;28;20455;-39
2022/01/02 10:45:33;;;;;;;6.95;3.45;;;1.30;61.30;;;;;;5057827;28;20052;-39
2022/01/02 10:47:59;;;;;;;11.30;4.57;;;1.40;61.60;;;;;;5056388;28;20384;-36
2022/01/02 10:50:25;;;;;;;5.45;2.70;;;1.40;61.40;;;;;;5057608;28;20061;-36
2022/01/02 10:52:50;;;;;;;5.97;3.17;;;1.40;61.30;;;;;;5057024;28;20477;-39
2022/01/02 10:55:21;;;;;;;9.27;3.40;;;1.40;61.30;;;;;;5057204;28;20052;-36
2022/01/02 10:57:51;;;;;;;5.40;2.90;;;1.40;61.00;;;;;;5057539;28;20032;-36
2022/01/02 11:00:23;;;;;;;5.07;2.75;;;1.40;60.70;;;;;;5057386;28;20120;-39
2022/01/02 11:02:49;;;;;;;5.22;3.03;;;1.50;60.80;;;;;;5057183;28;20104;-36
2022/01/02 11:05:22;;;;;;;4.03;2.70;;;1.50;60.30;;;;;;5057404;28;20108;-39
2022/01/02 11:07:54;;;;;;;4.50;2.42;;;1.50;60.00;;;;;;5057478;28;20025;-38
2022/01/02 11:10:22;;;;;;;5.63;3.03;;;1.50;59.70;;;;;;5057274;28;20317;-36
2022/01/02 11:12:49;;;;;;;5.57;2.72;;;1.50;59.80;;;;;;5057237;28;20036;-39
2022/01/02 11:15:17;;;;;;;4.15;2.75;;;1.50;59.70;;;;;;5056896;28;20075;-36
2022/01/02 11:17:43;;;;;;;4.57;2.58;;;1.50;59.30;;;;;;5057161;28;20025;-39
2022/01/02 11:20:11;;;;;;;3.88;2.33;;;1.50;59.20;;;;;;5057027;28;20044;-36
2022/01/02 11:22:58;;;;;;;5.03;2.97;;;1.50;59.20;;;;;;5057124;28;20345;-37
2022/01/02 11:25:42;;;;;;;5.13;3.42;;;1.60;58.90;;;;;;5056613;28;20037;-39
2022/01/02 11:28:14;;;;;;;9.48;4.90;;;1.60;59.10;;;;;;5056496;28;20417;-39
2022/01/02 11:30:40;;;;;;;7.25;3.45;;;1.60;59.00;;;;;;5056409;28;20033;-36
2022/01/02 11:33:15;;;;;;;3.33;2.03;;;1.70;59.10;;;;;;5056572;28;20036;-36
2022/01/02 11:35:47;;;;;;;4.22;2.10;;;1.70;58.50;;;;;;5056500;28;20325;-36
2022/01/02 11:38:15;;;;;;;13.77;6.32;;;1.70;58.00;;;;;;5056116;28;20056;-36
2022/01/02 11:40:56;;;;;;;8.68;3.78;;;1.70;58.40;;;;;;5056521;28;20486;-36
2022/01/02 11:43:38;;;;;;;2.92;2.22;;;1.70;58.00;;;;;;5056793;28;20317;-39
2022/01/02 11:46:24;;;;;;;13.10;7.15;;;1.60;58.00;;;;;;5056363;28;20057;-38
2022/01/02 11:49:05;;;;;;;5.70;3.55;;;1.60;58.40;;;;;;5056567;28;20025;-37
2022/01/02 11:51:48;;;;;;;5.82;3.15;;;1.50;58.50;;;;;;5056263;28;20032;-39
2022/01/02 11:54:30;;;;;;;17.13;8.20;;;1.60;59.00;;;;;;5056305;28;20303;-36
2022/01/02 11:56:58;;;;;;;8.32;4.10;;;1.60;59.10;;;;;;5055838;28;20048;-36
2022/01/02 11:59:38;;;;;;;7.85;4.15;;;1.60;59.20;;;;;;5056478;28;20082;-36
2022/01/02 12:02:13;;;;;;;5.03;2.88;;;1.70;59.00;;;;;;5056200;28;20287;-40
2022/01/02 12:04:58;;;;;;;5.00;2.63;;;1.70;58.70;;;;;;5056365;28;20062;-36
2022/01/02 12:07:50;;;;;;;5.10;2.53;;;1.80;58.70;;;;;;5055851;28;20021;-36
2022/01/02 12:12:59;;;;;;;4.70;2.85;;;1.80;58.70;;;;;;5056122;28;20116;-38
2022/01/02 12:15:44;;;;;;;5.03;2.90;;;1.70;58.70;;;;;;5055838;28;20068;-36
2022/01/02 12:18:17;;;;;;;5.65;3.08;;;1.70;58.80;;;;;;5055991;28;20100;-39
2022/01/02 12:23:53;;;;;;;5.03;3.13;;;1.80;59.10;;;;;;5055763;28;20393;-36
2022/01/02 12:26:39;;;;;;;5.28;2.95;;;1.70;58.90;;;;;;5055918;28;20025;-36
2022/01/02 12:29:12;;;;;;;6.13;2.67;;;1.70;59.10;;;;;;5055801;28;20428;-39
2022/01/02 12:31:45;;;;;;;5.40;2.85;;;1.70;59.30;;;;;;5055271;28;20452;-36
2022/01/02 12:34:18;;;;;;;4.93;3.20;;;1.70;59.20;;;;;;5055857;28;20368;-39
2022/01/02 12:36:46;;;;;;;4.72;2.90;;;1.70;59.00;;;;;;5055929;28;20106;-36
2022/01/02 12:39:15;;;;;;;4.57;3.22;;;1.60;59.10;;;;;;5055885;28;20044;-36
2022/01/02 12:41:43;;;;;;;4.60;2.53;;;1.60;59.30;;;;;;5055777;28;20336;-36
2022/01/02 12:44:11;;;;;;;5.30;2.97;;;1.50;59.30;;;;;;5055735;28;20364;-35
2022/01/02 12:46:52;;;;;;;7.32;3.65;;;1.40;59.30;;;;;;5055350;28;20135;-36
2022/01/02 12:49:29;;;;;;;9.45;4.57;;;1.40;59.50;;;;;;5055712;28;20095;-38
2022/01/02 12:51:57;;;;;;;6.93;4.15;;;1.40;59.60;;;;;;5059295;28;20087;-38
2022/01/02 12:54:29;;;;;;;6.82;3.88;;;1.30;59.80;;;;;;5059806;28;20029;-36
2022/01/02 12:57:01;;;;;;;6.20;3.47;;;1.30;60.00;;;;;;5059513;28;20226;-36
2022/01/02 12:59:43;;;;;;;4.15;3.08;;;1.30;60.10;;;;;;5059953;28;20373;-37
2022/01/02 13:02:21;;;;;;;10.20;3.95;;;1.30;60.00;;;;;;5059854;28;20021;-36
2022/01/02 13:04:49;;;;;;;5.15;2.92;;;1.30;60.00;;;;;;5059807;28;20102;-39
2022/01/02 13:07:25;;;;;;;8.45;4.50;;;1.20;59.60;;;;;;5059343;28;20036;-36
2022/01/02 13:09:53;;;;;;;9.00;5.63;;;1.20;59.50;;;;;;5059800;28;20043;-36
2022/01/02 13:12:28;;;;;;;6.43;3.60;;;1.20;59.60;;;;;;5059202;28;20409;-39
2022/01/02 13:14:54;;;;;;;6.90;4.30;;;1.10;59.60;;;;;;5059589;28;20039;-36
2022/01/02 13:17:26;;;;;;;9.20;3.88;;;1.10;59.80;;;;;;5059216;28;20021;-36